Wichita, KS (67278)

9:15 AM CDT on October 01, 2014 (GMT -0500)
25th PERRY Wichita | Change Station
CLOSE
Current Station
Personal Weather Station
Location: WICHITA, KS
Elevation: 1298 ft
Nearby Weather Stations
4.1 Earthquake: Perry, Oklahoma (1 day ago)  

Elev 1298 ft 37.73 °N, 97.36 °W | Updated 10 seconds ago

Partly Cloudy
Partly Cloudy
70.3 °F
Feels Like 70.3 °F
N
0.0
Wind Variable Wind from North
Gusts 1.0 mph

Today
High -- | Low -- °F
--% Chance of Precip.
Yesterday
High -- | Low -- °F
Precip. -- in
7:24 AM 7:12 PM
Waxing Crescent, 48% visible
Pressure 29.70 in
Visibility 10.0 miles
Clouds Scattered Clouds 6500 ft
Scattered Clouds 12000 ft
Scattered Clouds 16000 ft
Dew Point 65 °F
Humidity 83%
Rainfall 0.00 in
Snow Depth Not available.
UV 1 out of 12
Pollen 1.80 out of 12
Air Quality Not available.
Flu Activity Not available.
METAR KICT 011353Z 17007KT 10SM SCT065 SCT120 SCT160 22/17 A2974 RMK AO2 SLP055 T02220172

More Conditions Fewer Conditions

Pressure 29.70 in
Visibility 10.0 miles
Clouds Scattered Clouds 6500 ft
Scattered Clouds 12000 ft
Scattered Clouds 16000 ft
Dew Point 65 °F
Humidity 83%
Rainfall 0.00 in
Snow Depth Not available.
UV 1 out of 12
Pollen 1.80 out of 12
Air Quality Not available.
Flu Activity Not available.
METAR KICT 011353Z 17007KT 10SM SCT065 SCT120 SCT160 22/17 A2974 RMK AO2 SLP055 T02220172

More Conditions Fewer Conditions

10-Day Weather Forecast

Almanac

Astronomy

Oct. 01, 2014 Rise Set
Actual Time 7:24 AM CDT 7:12 PM CDT
Civil Twilight 6:58 AM CDT 7:38 PM CDT
Nautical Twilight 6:28 AM CDT 8:08 PM CDT
Astronomical Twilight 5:57 AM CDT 8:39 PM CDT
Moon 2:22 PM CDT No Moon Set
Length of Visible Light 12h 39m
Length of Day
11h 47m
Tomorrow will be 2m 24s shorter.
Waxing Crescent, 48% of the Moon is Illuminated
Today
Waxing Crescent
Oct 1
First Quarter
Oct 8
Full
Oct 15
Last Quarter
Oct 23
New

Today's Extremes

State Highs State Lows

Community

WunderPhotos

Upload Photos

1,757,952 photos uploaded!

Nearby

Snow Depth

Station Depth Elevation
No new snow has been reported.

Earthquake Activity

City Distance Mag. Time & Date
Harper, Kansas 44 miles 3.3 1:11 AM CDT
2014-10-01
Medford, Oklahoma 64 miles 2.5 10:49 PM CDT
2014-09-30
Medford, Oklahoma 66 miles 2.8 8:30 PM CDT
2014-09-30
Parsons, Kansas 109 miles 3.0 7:33 PM CDT
2014-09-30
Minimum magnitude displayed is 2.5.

Coastal Water Temperatures

Place Temperature
No Stations Reporting

Nearby Weather Stations